• Join FlightAware (Why Join?)
  • Login
  • US Flag 
03:32PM EDT


 

Airport Tracker/Info


-or-


 

Live Flight TrackerFlight Track Log ✈ AWI3642 ✈ 13-Jul-2013 ✈ KBTV - KPHL

Flight Track Log - Related Links

Times and Time Zones

All times are in EDT time to prevent confusion due to time zone crossing. See the AWI3642 flight status page for this flight to view local times or setup timezone preferences in your user account.

Time Position Orientation Groundspeed Altitude Reporting Facility
EDT Latitude Longitude Course Direction KTS MPH feet Rate Location/Type
06:24PM 44.3842 -73.1633 194° South 187 215 3,800  Level Boston Center
06:25PM 44.1782 -73.2554 196° South  Level FlightAware Approximate
06:25PM 44.3172 -73.1917 197° South 232 267 5,800  Level Boston Center
06:26PM 44.0823 -73.2938 196° South  Level FlightAware Approximate
06:26PM 44.2481 -73.2314 202° Southwest 257 296 8,000  Level Boston Center
06:27PM 43.9864 -73.3322 196° South  Level FlightAware Approximate
06:27PM 44.1811 -73.2883 211° Southwest 279 321 9,900  Level Boston Center
06:28PM 43.8905 -73.3702 195° South  Level FlightAware Approximate
06:28PM 44.1119 -73.3481 212° Southwest 294 338 11,600  Level Boston Center
06:29PM 44.0383 -73.4133 213° Southwest 312 359 13,300 1,980 Climbing Boston Center
06:30PM 43.9522 -73.4869 212° Southwest 325 374 15,600 1,800 Climbing Boston Center
06:31PM 43.8767 -73.5547 213° Southwest 325 374 17,000 1,140 Climbing Boston Center
06:32PM 43.7969 -73.6194 210° Southwest 333 383 17,900 900 Climbing Boston Center
06:33PM 43.7147 -73.6897 212° Southwest 346 398 18,800 540 Climbing Boston Center
06:34PM 43.6264 -73.7622 211° Southwest 361 415 19,000 120 Climbing Boston Center
06:35PM 43.5317 -73.8406 211° Southwest 383 441 19,100 480 Climbing Boston Center
06:36PM 43.4350 -73.9239 212° Southwest 400 460 20,000 780 Climbing Boston Center
06:37PM 43.3400 -74.0044 212° Southwest 406 467 20,700 600 Climbing Boston Center
06:38PM 43.2431 -74.0847 211° Southwest 411 473 21,300 540 Climbing Boston Center
06:39PM 43.1439 -74.1675 211° Southwest 411 473 21,800 480 Climbing Boston Center
06:40PM 43.0489 -74.2500 212° Southwest 411 473 22,300 420 Climbing Boston Center
06:41PM 42.9600 -74.3211 210° Southwest 411 473 22,700 420 Climbing Boston Center
06:42PM 42.8586 -74.4058 211° Southwest 416 479 23,200 480 Climbing Boston Center
06:43PM 42.7614 -74.4847 211° Southwest 416 479 23,700 360 Climbing Boston Center
06:44PM 42.6597 -74.5689 211° Southwest 416 479 24,000 120 Climbing Boston Center
06:45PM 42.5603 -74.6528 212° Southwest 421 484 24,000  Level Boston Center
06:46PM 42.4586 -74.7336 210° Southwest 427 491 24,000 -180 Level Boston Center
06:47PM 42.3503 -74.8225 211° Southwest 437 503 23,700 -900 Descending Boston Center
06:49PM 42.1483 -74.9833 211° Southwest 443 510 21,600 -1,320 Descending New York Center
06:50PM 42.0456 -75.0661 211° Southwest 443 510 20,000 -1,320 Descending New York Center
06:51PM 41.9467 -75.1517 213° Southwest 433 498 19,000 -540 Descending New York Center
06:52PM 41.8458 -75.2314 211° Southwest 433 498 19,000 -660 Level New York Center
06:53PM 41.7578 -75.3033 211° Southwest 427 491 17,800 -1,800 Descending New York Center
06:54PM 41.6503 -75.3903 211° Southwest 415 478 15,500 -2,040 Descending New York Center
06:55PM 41.5581 -75.4617 210° Southwest 410 472 13,700 -1,680 Descending New York Center
06:56PM 41.4697 -75.5331 211° Southwest 387 445 12,100 -900 Descending New York Center
06:57PM 41.3922 -75.5967 212° Southwest 381 438 12,000 -60 Descending New York Center
06:58PM 41.2933 -75.6722 210° Southwest 381 438 12,000  Level New York Center
06:59PM 41.1989 -75.6875 187° South 363 418 12,000  Level New York Center
07:00PM 41.0822 -75.6872 180° South 378 435 12,000  Level New York Center
07:01PM 40.9822 -75.6883 180° South 383 441 12,000  Level New York Center
07:02PM 40.8783 -75.6808 177° South 377 434 12,000 -240 Level New York Center
07:03PM 40.7947 -75.6336 157° South 365 420 11,600 -720 Descending New York Center
07:04PM 40.7114 -75.5839 156° South 351 404 10,600 -840 Descending New York Center
07:05PM 40.6361 -75.5406 156° South 317 365 10,000 -300 Descending New York Center
07:06PM 40.5647 -75.5000 157° South 292 336 10,000 -180 Level New York Center
07:07PM 40.4889 -75.4703 163° South 281 323 9,700 -720 Descending New York Center
07:08PM 40.4139 -75.4678 179° South 281 323 8,700 -1,320 Descending New York Center
07:09PM 40.3347 -75.4678 180° South 272 313 7,100 -1,500 Descending New York Center
07:10PM 40.2600 -75.4628 177° South 272 313 5,700 -1,500 Descending New York Center
07:11PM 40.1811 -75.4519 174° South 278 320 4,200 -900 Descending New York Center
07:12PM 40.1331 -75.4053 143° Southeast 254 292 4,000 -120 Descending New York Center
07:13PM 40.0842 -75.3181 126° Southeast 257 296 4,000  Level New York Center
07:14PM 40.0369 -75.2444 130° Southeast 268 308 4,000  Level New York Center
07:15PM 39.9883 -75.2114 152° Southeast 235 270 4,000  Level New York Center
07:16PM 39.9433 -75.1842 155° Southeast 203 234 4,000  Level New York Center